sensor_id;sensor_type;location;lat;lon;timestamp;pressure;altitude;pressure_sealevel;temperature;humidity
21658;BME280;10990;48.174;9.782;2023-01-30T00:01:14;94435.81;;;-3.04;100.00
21658;BME280;10990;48.174;9.782;2023-01-30T00:03:41;94406.50;;;-2.90;100.00
21658;BME280;10990;48.174;9.782;2023-01-30T00:06:10;94410.72;;;-3.02;100.00
21658;BME280;10990;48.174;9.782;2023-01-30T00:08:36;94404.72;;;-3.03;100.00
21658;BME280;10990;48.174;9.782;2023-01-30T00:11:04;94401.31;;;-3.03;100.00
21658;BME280;10990;48.174;9.782;2023-01-30T00:13:31;94401.91;;;-3.12;100.00
21658;BME280;10990;48.174;9.782;2023-01-30T00:15:58;94401.97;;;-3.14;100.00
21658;BME280;10990;48.174;9.782;2023-01-30T00:18:25;94388.97;;;-3.12;100.00
21658;BME280;10990;48.174;9.782;2023-01-30T00:20:54;94367.97;;;-3.08;100.00
21658;BME280;10990;48.174;9.782;2023-01-30T00:23:24;94360.41;;;-3.11;100.00
21658;BME280;10990;48.174;9.782;2023-01-30T00:25:51;94355.25;;;-3.11;100.00
21658;BME280;10990;48.174;9.782;2023-01-30T00:28:18;94334.06;;;-3.03;100.00
21658;BME280;10990;48.174;9.782;2023-01-30T00:30:47;94313.69;;;-2.95;100.00
21658;BME280;10990;48.174;9.782;2023-01-30T00:33:14;94307.59;;;-2.94;100.00
21658;BME280;10990;48.174;9.782;2023-01-30T00:35:42;94307.16;;;-2.88;100.00
21658;BME280;10990;48.174;9.782;2023-01-30T00:38:09;94304.59;;;-3.01;100.00
21658;BME280;10990;48.174;9.782;2023-01-30T00:40:37;94303.03;;;-3.03;100.00
21658;BME280;10990;48.174;9.782;2023-01-30T00:43:04;94294.13;;;-2.99;100.00
21658;BME280;10990;48.174;9.782;2023-01-30T00:45:49;94302.41;;;-3.07;100.00
21658;BME280;10990;48.174;9.782;2023-01-30T00:48:35;94292.34;;;-2.99;100.00
21658;BME280;10990;48.174;9.782;2023-01-30T00:51:02;94293.50;;;-3.03;100.00
21658;BME280;10990;48.174;9.782;2023-01-30T00:53:28;94289.47;;;-3.07;100.00
21658;BME280;10990;48.174;9.782;2023-01-30T00:55:56;94312.75;;;-3.07;100.00
21658;BME280;10990;48.174;9.782;2023-01-30T00:58:24;94291.03;;;-2.91;100.00
21658;BME280;10990;48.174;9.782;2023-01-30T01:00:51;94297.84;;;-3.03;100.00
21658;BME280;10990;48.174;9.782;2023-01-30T01:03:18;94293.63;;;-2.91;100.00
21658;BME280;10990;48.174;9.782;2023-01-30T01:05:46;94284.84;;;-2.89;100.00
21658;BME280;10990;48.174;9.782;2023-01-30T01:08:13;94291.75;;;-2.89;100.00
21658;BME280;10990;48.174;9.782;2023-01-30T01:10:40;94288.75;;;-2.96;100.00
21658;BME280;10990;48.174;9.782;2023-01-30T01:13:08;94288.13;;;-3.00;100.00
21658;BME280;10990;48.174;9.782;2023-01-30T01:15:35;94293.09;;;-3.09;100.00
21658;BME280;10990;48.174;9.782;2023-01-30T01:18:02;94288.94;;;-3.12;100.00
21658;BME280;10990;48.174;9.782;2023-01-30T01:20:29;94282.00;;;-3.11;100.00
21658;BME280;10990;48.174;9.782;2023-01-30T01:22:56;94280.25;;;-3.11;100.00
21658;BME280;10990;48.174;9.782;2023-01-30T01:25:24;94294.41;;;-3.17;100.00
21658;BME280;10990;48.174;9.782;2023-01-30T01:27:51;94290.69;;;-3.25;100.00
21658;BME280;10990;48.174;9.782;2023-01-30T01:30:20;94278.16;;;-3.19;100.00
21658;BME280;10990;48.174;9.782;2023-01-30T01:32:47;94276.53;;;-3.20;100.00
21658;BME280;10990;48.174;9.782;2023-01-30T01:35:14;94284.56;;;-3.24;100.00
21658;BME280;10990;48.174;9.782;2023-01-30T01:37:41;94283.78;;;-3.12;100.00
21658;BME280;10990;48.174;9.782;2023-01-30T01:40:15;94288.34;;;-3.03;100.00
21658;BME280;10990;48.174;9.782;2023-01-30T01:43:00;94305.03;;;-3.21;100.00
21658;BME280;10990;48.174;9.782;2023-01-30T01:45:29;94289.97;;;-3.14;100.00
21658;BME280;10990;48.174;9.782;2023-01-30T01:47:59;94292.66;;;-3.16;100.00
21658;BME280;10990;48.174;9.782;2023-01-30T01:50:31;94295.22;;;-3.16;100.00
21658;BME280;10990;48.174;9.782;2023-01-30T01:53:05;94311.28;;;-3.24;100.00
21658;BME280;10990;48.174;9.782;2023-01-30T01:55:32;94309.84;;;-3.15;100.00
21658;BME280;10990;48.174;9.782;2023-01-30T01:58:03;94298.66;;;-3.16;100.00
21658;BME280;10990;48.174;9.782;2023-01-30T02:00:35;94293.47;;;-3.16;100.00
21658;BME280;10990;48.174;9.782;2023-01-30T02:03:05;94288.31;;;-3.16;100.00
21658;BME280;10990;48.174;9.782;2023-01-30T02:05:34;94309.50;;;-3.23;100.00
21658;BME280;10990;48.174;9.782;2023-01-30T02:08:05;94313.00;;;-3.24;100.00
21658;BME280;10990;48.174;9.782;2023-01-30T02:10:39;94322.97;;;-3.18;100.00
21658;BME280;10990;48.174;9.782;2023-01-30T02:13:08;94317.38;;;-3.12;100.00
21658;BME280;10990;48.174;9.782;2023-01-30T02:15:36;94336.72;;;-3.18;100.00
21658;BME280;10990;48.174;9.782;2023-01-30T02:18:03;94345.38;;;-3.19;100.00
21658;BME280;10990;48.174;9.782;2023-01-30T02:20:43;94356.94;;;-3.24;100.00
21658;BME280;10990;48.174;9.782;2023-01-30T02:23:37;94373.19;;;-3.22;100.00
21658;BME280;10990;48.174;9.782;2023-01-30T02:26:44;94397.34;;;-3.36;100.00
21658;BME280;10990;48.174;9.782;2023-01-30T02:29:51;94426.28;;;-3.58;100.00
21658;BME280;10990;48.174;9.782;2023-01-30T02:32:28;94425.38;;;-3.57;100.00
21658;BME280;10990;48.174;9.782;2023-01-30T02:35:03;94406.53;;;-3.59;100.00
21658;BME280;10990;48.174;9.782;2023-01-30T02:37:46;94369.06;;;-3.52;100.00
21658;BME280;10990;48.174;9.782;2023-01-30T02:40:31;94347.94;;;-3.58;100.00
21658;BME280;10990;48.174;9.782;2023-01-30T02:43:07;94320.59;;;-3.48;100.00
21658;BME280;10990;48.174;9.782;2023-01-30T02:45:42;94316.16;;;-3.46;100.00
21658;BME280;10990;48.174;9.782;2023-01-30T02:48:16;94300.47;;;-3.43;100.00
21658;BME280;10990;48.174;9.782;2023-01-30T02:50:51;94289.19;;;-3.42;100.00
21658;BME280;10990;48.174;9.782;2023-01-30T02:53:19;94294.28;;;-3.41;100.00
21658;BME280;10990;48.174;9.782;2023-01-30T02:55:47;94303.97;;;-3.44;100.00
21658;BME280;10990;48.174;9.782;2023-01-30T02:58:15;94302.59;;;-3.50;100.00
21658;BME280;10990;48.174;9.782;2023-01-30T03:00:58;94296.81;;;-3.53;100.00
21658;BME280;10990;48.174;9.782;2023-01-30T03:03:44;94299.38;;;-3.53;100.00
21658;BME280;10990;48.174;9.782;2023-01-30T03:06:27;94283.47;;;-3.47;100.00
21658;BME280;10990;48.174;9.782;2023-01-30T03:09:05;94258.50;;;-3.34;100.00
21658;BME280;10990;48.174;9.782;2023-01-30T03:11:38;94265.22;;;-3.31;100.00
21658;BME280;10990;48.174;9.782;2023-01-30T03:14:16;94256.34;;;-3.27;100.00
21658;BME280;10990;48.174;9.782;2023-01-30T03:16:45;94245.91;;;-3.13;100.00
21658;BME280;10990;48.174;9.782;2023-01-30T03:19:18;94245.00;;;-3.12;100.00
21658;BME280;10990;48.174;9.782;2023-01-30T03:21:45;94236.72;;;-3.17;100.00
21658;BME280;10990;48.174;9.782;2023-01-30T03:24:13;94227.31;;;-3.18;100.00
21658;BME280;10990;48.174;9.782;2023-01-30T03:26:48;94223.88;;;-3.19;100.00
21658;BME280;10990;48.174;9.782;2023-01-30T03:29:17;94237.75;;;-3.20;100.00
21658;BME280;10990;48.174;9.782;2023-01-30T03:31:44;94256.66;;;-3.19;100.00
21658;BME280;10990;48.174;9.782;2023-01-30T03:34:11;94263.63;;;-3.07;100.00
21658;BME280;10990;48.174;9.782;2023-01-30T03:36:40;94248.09;;;-2.94;100.00
21658;BME280;10990;48.174;9.782;2023-01-30T03:39:07;94238.66;;;-3.08;100.00
21658;BME280;10990;48.174;9.782;2023-01-30T03:41:34;94236.41;;;-3.12;100.00
21658;BME280;10990;48.174;9.782;2023-01-30T03:44:01;94218.31;;;-3.12;100.00
21658;BME280;10990;48.174;9.782;2023-01-30T03:46:28;94228.53;;;-3.11;100.00
21658;BME280;10990;48.174;9.782;2023-01-30T03:48:54;94244.47;;;-3.17;100.00
21658;BME280;10990;48.174;9.782;2023-01-30T03:51:21;94264.81;;;-3.25;100.00
21658;BME280;10990;48.174;9.782;2023-01-30T03:53:49;94280.41;;;-3.27;100.00
21658;BME280;10990;48.174;9.782;2023-01-30T03:56:16;94249.94;;;-3.09;100.00
21658;BME280;10990;48.174;9.782;2023-01-30T03:58:43;94234.94;;;-3.17;100.00
21658;BME280;10990;48.174;9.782;2023-01-30T04:01:19;94211.56;;;-3.02;100.00
21658;BME280;10990;48.174;9.782;2023-01-30T04:03:46;94226.16;;;-3.14;100.00
21658;BME280;10990;48.174;9.782;2023-01-30T04:06:14;94235.66;;;-3.27;100.00
21658;BME280;10990;48.174;9.782;2023-01-30T04:08:41;94231.31;;;-3.27;100.00
21658;BME280;10990;48.174;9.782;2023-01-30T04:11:16;94228.22;;;-3.32;100.00
21658;BME280;10990;48.174;9.782;2023-01-30T04:13:43;94209.91;;;-3.29;100.00
21658;BME280;10990;48.174;9.782;2023-01-30T04:16:13;94187.56;;;-3.30;100.00
21658;BME280;10990;48.174;9.782;2023-01-30T04:18:58;94167.00;;;-3.31;100.00
21658;BME280;10990;48.174;9.782;2023-01-30T04:21:29;94167.31;;;-3.36;100.00
21658;BME280;10990;48.174;9.782;2023-01-30T04:23:56;94162.34;;;-3.26;100.00
21658;BME280;10990;48.174;9.782;2023-01-30T04:26:24;94195.66;;;-3.34;100.00
21658;BME280;10990;48.174;9.782;2023-01-30T04:28:51;94197.59;;;-3.25;100.00
21658;BME280;10990;48.174;9.782;2023-01-30T04:31:18;94188.09;;;-3.25;100.00
21658;BME280;10990;48.174;9.782;2023-01-30T04:33:57;94194.06;;;-3.50;100.00
21658;BME280;10990;48.174;9.782;2023-01-30T04:36:24;94175.69;;;-3.45;100.00
21658;BME280;10990;48.174;9.782;2023-01-30T04:38:54;94171.44;;;-3.46;100.00
21658;BME280;10990;48.174;9.782;2023-01-30T04:41:24;94163.28;;;-3.40;100.00
21658;BME280;10990;48.174;9.782;2023-01-30T04:43:55;94166.28;;;-3.46;100.00
21658;BME280;10990;48.174;9.782;2023-01-30T04:46:29;94157.47;;;-3.44;100.00
21658;BME280;10990;48.174;9.782;2023-01-30T04:48:56;94140.44;;;-3.46;100.00
21658;BME280;10990;48.174;9.782;2023-01-30T04:51:24;94131.75;;;-3.45;100.00
21658;BME280;10990;48.174;9.782;2023-01-30T04:53:51;94127.41;;;-3.45;100.00
21658;BME280;10990;48.174;9.782;2023-01-30T04:56:18;94132.16;;;-3.39;100.00
21658;BME280;10990;48.174;9.782;2023-01-30T04:58:48;94156.75;;;-3.46;100.00
21658;BME280;10990;48.174;9.782;2023-01-30T05:01:21;94153.44;;;-3.48;100.00
21658;BME280;10990;48.174;9.782;2023-01-30T05:03:49;94147.97;;;-3.43;100.00
21658;BME280;10990;48.174;9.782;2023-01-30T05:06:16;94153.56;;;-3.36;100.00
21658;BME280;10990;48.174;9.782;2023-01-30T05:08:43;94162.56;;;-3.29;100.00
21658;BME280;10990;48.174;9.782;2023-01-30T05:11:09;94174.88;;;-3.20;100.00
21658;BME280;10990;48.174;9.782;2023-01-30T05:13:36;94173.94;;;-3.19;100.00
21658;BME280;10990;48.174;9.782;2023-01-30T05:16:05;94174.44;;;-3.14;100.00
21658;BME280;10990;48.174;9.782;2023-01-30T05:18:31;94173.72;;;-3.16;100.00
21658;BME280;10990;48.174;9.782;2023-01-30T05:21:03;94181.69;;;-3.19;100.00
21658;BME280;10990;48.174;9.782;2023-01-30T05:23:30;94164.19;;;-3.03;100.00
21658;BME280;10990;48.174;9.782;2023-01-30T05:25:57;94170.53;;;-3.07;100.00
21658;BME280;10990;48.174;9.782;2023-01-30T05:28:24;94161.53;;;-3.01;100.00
21658;BME280;10990;48.174;9.782;2023-01-30T05:30:51;94163.25;;;-3.02;100.00
21658;BME280;10990;48.174;9.782;2023-01-30T05:33:19;94168.84;;;-2.95;100.00
21658;BME280;10990;48.174;9.782;2023-01-30T05:35:46;94151.13;;;-2.88;100.00
21658;BME280;10990;48.174;9.782;2023-01-30T05:38:12;94159.13;;;-2.91;100.00
21658;BME280;10990;48.174;9.782;2023-01-30T05:40:39;94145.56;;;-2.95;100.00
21658;BME280;10990;48.174;9.782;2023-01-30T05:43:06;94154.16;;;-2.95;100.00
21658;BME280;10990;48.174;9.782;2023-01-30T05:45:34;94142.47;;;-3.00;100.00
21658;BME280;10990;48.174;9.782;2023-01-30T05:48:00;94134.09;;;-3.04;100.00
21658;BME280;10990;48.174;9.782;2023-01-30T05:50:29;94126.34;;;-3.04;100.00
21658;BME280;10990;48.174;9.782;2023-01-30T05:52:56;94124.59;;;-3.03;100.00
21658;BME280;10990;48.174;9.782;2023-01-30T05:55:23;94128.09;;;-3.04;100.00
21658;BME280;10990;48.174;9.782;2023-01-30T05:57:50;94143.41;;;-3.14;100.00
21658;BME280;10990;48.174;9.782;2023-01-30T06:00:17;94136.47;;;-3.13;100.00
21658;BME280;10990;48.174;9.782;2023-01-30T06:02:44;94150.03;;;-3.23;100.00
21658;BME280;10990;48.174;9.782;2023-01-30T06:05:11;94153.88;;;-3.28;100.00
21658;BME280;10990;48.174;9.782;2023-01-30T06:07:39;94157.78;;;-3.23;100.00
21658;BME280;10990;48.174;9.782;2023-01-30T06:10:06;94152.84;;;-3.26;100.00
21658;BME280;10990;48.174;9.782;2023-01-30T06:12:33;94157.19;;;-3.26;100.00
21658;BME280;10990;48.174;9.782;2023-01-30T06:14:59;94159.66;;;-3.25;100.00
21658;BME280;10990;48.174;9.782;2023-01-30T06:17:26;94143.84;;;-3.20;100.00
21658;BME280;10990;48.174;9.782;2023-01-30T06:19:52;94138.66;;;-3.20;100.00
21658;BME280;10990;48.174;9.782;2023-01-30T06:22:19;94122.31;;;-3.08;100.00
21658;BME280;10990;48.174;9.782;2023-01-30T06:24:47;94113.09;;;-2.99;100.00
21658;BME280;10990;48.174;9.782;2023-01-30T06:27:14;94096.81;;;-2.88;100.00
21658;BME280;10990;48.174;9.782;2023-01-30T06:29:40;94100.75;;;-2.83;100.00
21658;BME280;10990;48.174;9.782;2023-01-30T06:32:07;94093.19;;;-2.86;100.00
21658;BME280;10990;48.174;9.782;2023-01-30T06:34:35;94086.56;;;-2.77;100.00
21658;BME280;10990;48.174;9.782;2023-01-30T06:37:01;94089.09;;;-2.64;100.00
21658;BME280;10990;48.174;9.782;2023-01-30T06:39:28;94086.19;;;-2.60;100.00
21658;BME280;10990;48.174;9.782;2023-01-30T06:41:56;94079.72;;;-2.54;100.00
21658;BME280;10990;48.174;9.782;2023-01-30T06:44:23;94088.22;;;-2.52;100.00
21658;BME280;10990;48.174;9.782;2023-01-30T06:46:49;94097.13;;;-2.56;100.00
21658;BME280;10990;48.174;9.782;2023-01-30T06:49:16;94100.44;;;-2.54;100.00
21658;BME280;10990;48.174;9.782;2023-01-30T06:51:42;94093.09;;;-2.47;100.00
21658;BME280;10990;48.174;9.782;2023-01-30T06:54:09;94097.41;;;-2.48;100.00
21658;BME280;10990;48.174;9.782;2023-01-30T06:56:36;94079.34;;;-2.37;100.00
21658;BME280;10990;48.174;9.782;2023-01-30T06:59:04;94080.84;;;-2.45;100.00
21658;BME280;10990;48.174;9.782;2023-01-30T07:01:30;94087.00;;;-2.35;100.00
21658;BME280;10990;48.174;9.782;2023-01-30T07:03:57;94105.34;;;-2.38;100.00
21658;BME280;10990;48.174;9.782;2023-01-30T07:06:25;94108.88;;;-2.39;100.00
21658;BME280;10990;48.174;9.782;2023-01-30T07:08:52;94113.00;;;-2.37;100.00
21658;BME280;10990;48.174;9.782;2023-01-30T07:11:20;94124.91;;;-2.34;100.00
21658;BME280;10990;48.174;9.782;2023-01-30T07:13:47;94128.75;;;-2.40;100.00
21658;BME280;10990;48.174;9.782;2023-01-30T07:16:15;94136.53;;;-2.40;100.00
21658;BME280;10990;48.174;9.782;2023-01-30T07:18:42;94138.81;;;-2.48;100.00
21658;BME280;10990;48.174;9.782;2023-01-30T07:21:08;94148.34;;;-2.49;100.00
21658;BME280;10990;48.174;9.782;2023-01-30T07:23:35;94149.81;;;-2.44;100.00
21658;BME280;10990;48.174;9.782;2023-01-30T07:26:02;94155.38;;;-2.38;100.00
21658;BME280;10990;48.174;9.782;2023-01-30T07:28:29;94149.44;;;-2.27;100.00
21658;BME280;10990;48.174;9.782;2023-01-30T07:30:58;94142.38;;;-2.25;100.00
21658;BME280;10990;48.174;9.782;2023-01-30T07:33:26;94151.28;;;-2.29;100.00
21658;BME280;10990;48.174;9.782;2023-01-30T07:35:54;94156.25;;;-2.26;100.00
21658;BME280;10990;48.174;9.782;2023-01-30T07:38:20;94169.09;;;-2.24;100.00
21658;BME280;10990;48.174;9.782;2023-01-30T07:40:47;94173.22;;;-2.22;100.00
21658;BME280;10990;48.174;9.782;2023-01-30T07:43:14;94166.94;;;-2.31;100.00
21658;BME280;10990;48.174;9.782;2023-01-30T07:45:42;94174.81;;;-2.32;100.00
21658;BME280;10990;48.174;9.782;2023-01-30T07:48:12;94167.59;;;-2.40;100.00
21658;BME280;10990;48.174;9.782;2023-01-30T07:50:41;94176.59;;;-2.45;100.00
21658;BME280;10990;48.174;9.782;2023-01-30T07:53:10;94181.56;;;-2.42;100.00
21658;BME280;10990;48.174;9.782;2023-01-30T07:55:38;94188.28;;;-2.27;100.00
21658;BME280;10990;48.174;9.782;2023-01-30T07:58:04;94180.41;;;-2.01;100.00
21658;BME280;10990;48.174;9.782;2023-01-30T08:00:31;94189.22;;;-1.80;100.00
21658;BME280;10990;48.174;9.782;2023-01-30T08:02:58;94191.81;;;-1.45;100.00
21658;BME280;10990;48.174;9.782;2023-01-30T08:05:25;94185.97;;;-1.13;100.00
21658;BME280;10990;48.174;9.782;2023-01-30T08:07:55;94203.31;;;-1.14;100.00
21658;BME280;10990;48.174;9.782;2023-01-30T08:10:22;94220.69;;;-0.92;100.00
21658;BME280;10990;48.174;9.782;2023-01-30T08:12:49;94230.28;;;-0.70;100.00
21658;BME280;10990;48.174;9.782;2023-01-30T08:15:16;94244.09;;;-0.47;100.00
21658;BME280;10990;48.174;9.782;2023-01-30T08:17:43;94258.38;;;-0.18;100.00
21658;BME280;10990;48.174;9.782;2023-01-30T08:20:10;94266.91;;;0.38;100.00
21658;BME280;10990;48.174;9.782;2023-01-30T08:22:40;94278.16;;;1.24;100.00
21658;BME280;10990;48.174;9.782;2023-01-30T08:25:08;94324.75;;;1.48;100.00
21658;BME280;10990;48.174;9.782;2023-01-30T08:27:35;94393.63;;;1.34;100.00
21658;BME280;10990;48.174;9.782;2023-01-30T08:30:02;94389.28;;;2.29;100.00
21658;BME280;10990;48.174;9.782;2023-01-30T08:32:29;94429.00;;;2.42;100.00
21658;BME280;10990;48.174;9.782;2023-01-30T08:34:56;94457.13;;;3.00;100.00
21658;BME280;10990;48.174;9.782;2023-01-30T08:37:23;94561.81;;;2.24;100.00
21658;BME280;10990;48.174;9.782;2023-01-30T08:39:49;94624.44;;;1.81;100.00
21658;BME280;10990;48.174;9.782;2023-01-30T08:42:17;94660.50;;;1.42;100.00
21658;BME280;10990;48.174;9.782;2023-01-30T08:44:44;94696.66;;;0.88;100.00
21658;BME280;10990;48.174;9.782;2023-01-30T08:47:11;94735.50;;;0.67;100.00
21658;BME280;10990;48.174;9.782;2023-01-30T08:49:37;94730.09;;;1.28;100.00
21658;BME280;10990;48.174;9.782;2023-01-30T08:52:04;94767.69;;;1.71;100.00
21658;BME280;10990;48.174;9.782;2023-01-30T08:54:31;94813.94;;;0.98;100.00
21658;BME280;10990;48.174;9.782;2023-01-30T08:56:57;94814.13;;;0.60;100.00
21658;BME280;10990;48.174;9.782;2023-01-30T08:59:25;94812.44;;;0.35;100.00
21658;BME280;10990;48.174;9.782;2023-01-30T09:01:52;94810.34;;;0.03;100.00
21658;BME280;10990;48.174;9.782;2023-01-30T09:04:20;94790.22;;;0.18;100.00
21658;BME280;10990;48.174;9.782;2023-01-30T09:06:49;94786.47;;;0.22;100.00
21658;BME280;10990;48.174;9.782;2023-01-30T09:09:15;94747.22;;;0.73;100.00
21658;BME280;10990;48.174;9.782;2023-01-30T09:11:42;94769.59;;;0.76;100.00
21658;BME280;10990;48.174;9.782;2023-01-30T09:14:10;94689.88;;;2.85;100.00
21658;BME280;10990;48.174;9.782;2023-01-30T09:16:38;94837.88;;;2.08;100.00
21658;BME280;10990;48.174;9.782;2023-01-30T09:19:05;94877.38;;;0.97;100.00
21658;BME280;10990;48.174;9.782;2023-01-30T09:21:32;94726.47;;;4.39;100.00
21658;BME280;10990;48.174;9.782;2023-01-30T09:23:58;94778.00;;;6.59;100.00
21658;BME280;10990;48.174;9.782;2023-01-30T09:26:25;94908.56;;;7.41;100.00
21658;BME280;10990;48.174;9.782;2023-01-30T09:28:52;95045.91;;;7.90;100.00
21658;BME280;10990;48.174;9.782;2023-01-30T09:31:18;95197.84;;;8.17;100.00
21658;BME280;10990;48.174;9.782;2023-01-30T09:33:46;95363.53;;;7.91;100.00
21658;BME280;10990;48.174;9.782;2023-01-30T09:36:13;95522.94;;;7.05;100.00
21658;BME280;10990;48.174;9.782;2023-01-30T09:38:40;95533.34;;;8.36;100.00
21658;BME280;10990;48.174;9.782;2023-01-30T09:41:30;95641.06;;;8.19;100.00
21658;BME280;10990;48.174;9.782;2023-01-30T09:44:11;95730.41;;;5.87;100.00
21658;BME280;10990;48.174;9.782;2023-01-30T09:46:47;95692.75;;;6.86;100.00
21658;BME280;10990;48.174;9.782;2023-01-30T09:49:27;95803.28;;;4.41;100.00
21658;BME280;10990;48.174;9.782;2023-01-30T09:52:03;95726.84;;;2.97;100.00
21658;BME280;10990;48.174;9.782;2023-01-30T09:54:35;95644.06;;;2.97;100.00
21658;BME280;10990;48.174;9.782;2023-01-30T09:57:11;95556.38;;;3.19;100.00
21658;BME280;10990;48.174;9.782;2023-01-30T09:59:50;95482.59;;;3.87;100.00
21658;BME280;10990;48.174;9.782;2023-01-30T10:02:40;95469.66;;;6.72;100.00
21658;BME280;10990;48.174;9.782;2023-01-30T10:05:11;95553.09;;;7.01;100.00
21658;BME280;10990;48.174;9.782;2023-01-30T10:07:49;95709.56;;;5.16;100.00
21658;BME280;10990;48.174;9.782;2023-01-30T10:10:39;95687.84;;;3.06;100.00
21658;BME280;10990;48.174;9.782;2023-01-30T10:16:17;95505.06;;;5.16;100.00
21658;BME280;10990;48.174;9.782;2023-01-30T10:18:55;95464.53;;;6.70;100.00
21658;BME280;10990;48.174;9.782;2023-01-30T10:21:33;95570.25;;;8.36;100.00
21658;BME280;10990;48.174;9.782;2023-01-30T10:24:17;95689.91;;;8.23;100.00
21658;BME280;10990;48.174;9.782;2023-01-30T10:26:47;95769.09;;;4.55;100.00
21658;BME280;10990;48.174;9.782;2023-01-30T10:29:17;95657.00;;;4.71;100.00
21658;BME280;10990;48.174;9.782;2023-01-30T10:31:48;95643.47;;;3.81;100.00
21658;BME280;10990;48.174;9.782;2023-01-30T10:34:19;95544.38;;;6.37;100.00
21658;BME280;10990;48.174;9.782;2023-01-30T10:36:53;95572.16;;;6.93;100.00
21658;BME280;10990;48.174;9.782;2023-01-30T10:39:26;95641.72;;;7.31;100.00
21658;BME280;10990;48.174;9.782;2023-01-30T10:42:01;95694.66;;;7.16;100.00
21658;BME280;10990;48.174;9.782;2023-01-30T10:44:31;95691.78;;;7.40;100.00
21658;BME280;10990;48.174;9.782;2023-01-30T10:47:11;95722.91;;;7.03;100.00
21658;BME280;10990;48.174;9.782;2023-01-30T10:49:43;95748.88;;;7.50;100.00
21658;BME280;10990;48.174;9.782;2023-01-30T10:52:21;95780.25;;;7.41;100.00
21658;BME280;10990;48.174;9.782;2023-01-30T10:55:00;95809.25;;;6.87;100.00
21658;BME280;10990;48.174;9.782;2023-01-30T10:57:42;95774.56;;;7.57;100.00
21658;BME280;10990;48.174;9.782;2023-01-30T11:00:18;95857.81;;;5.21;100.00
21658;BME280;10990;48.174;9.782;2023-01-30T11:02:58;95767.56;;;4.77;100.00
21658;BME280;10990;48.174;9.782;2023-01-30T11:05:34;95681.88;;;4.42;100.00
21658;BME280;10990;48.174;9.782;2023-01-30T11:08:11;95611.13;;;4.31;100.00
21658;BME280;10990;48.174;9.782;2023-01-30T11:10:43;95600.50;;;3.97;100.00
21658;BME280;10990;48.174;9.782;2023-01-30T11:13:14;95555.63;;;3.66;100.00
21658;BME280;10990;48.174;9.782;2023-01-30T11:15:43;95517.41;;;3.16;100.00
21658;BME280;10990;48.174;9.782;2023-01-30T11:18:12;95475.81;;;3.00;100.00
21658;BME280;10990;48.174;9.782;2023-01-30T11:20:40;95446.31;;;2.74;100.00
21658;BME280;10990;48.174;9.782;2023-01-30T11:23:25;95389.31;;;2.42;100.00
21658;BME280;10990;48.174;9.782;2023-01-30T11:25:55;95340.59;;;2.42;100.00
21658;BME280;10990;48.174;9.782;2023-01-30T11:28:23;95303.50;;;2.50;100.00
21658;BME280;10990;48.174;9.782;2023-01-30T11:30:53;95278.44;;;2.47;100.00
21658;BME280;10990;48.174;9.782;2023-01-30T11:33:30;95256.38;;;2.28;100.00
21658;BME280;10990;48.174;9.782;2023-01-30T11:35:59;95221.75;;;2.26;100.00
21658;BME280;10990;48.174;9.782;2023-01-30T11:38:29;95202.91;;;2.33;100.00
21658;BME280;10990;48.174;9.782;2023-01-30T11:41:15;95181.00;;;2.12;100.00
21658;BME280;10990;48.174;9.782;2023-01-30T11:43:43;95151.31;;;2.26;100.00
21658;BME280;10990;48.174;9.782;2023-01-30T11:46:11;95135.69;;;2.13;100.00
21658;BME280;10990;48.174;9.782;2023-01-30T11:48:44;95129.69;;;1.99;100.00
21658;BME280;10990;48.174;9.782;2023-01-30T11:51:14;95090.75;;;2.09;100.00
21658;BME280;10990;48.174;9.782;2023-01-30T11:53:45;95078.50;;;2.22;100.00
21658;BME280;10990;48.174;9.782;2023-01-30T11:56:20;95085.81;;;1.93;100.00
21658;BME280;10990;48.174;9.782;2023-01-30T11:58:53;95064.72;;;2.20;100.00
21658;BME280;10990;48.174;9.782;2023-01-30T12:01:25;95060.38;;;2.08;100.00
21658;BME280;10990;48.174;9.782;2023-01-30T12:03:53;95058.22;;;2.26;100.00
21658;BME280;10990;48.174;9.782;2023-01-30T12:06:28;95029.63;;;2.36;100.00
21658;BME280;10990;48.174;9.782;2023-01-30T12:08:57;95030.53;;;2.12;100.00
21658;BME280;10990;48.174;9.782;2023-01-30T12:11:40;95022.72;;;2.12;100.00
21658;BME280;10990;48.174;9.782;2023-01-30T12:14:18;95030.94;;;1.95;100.00
21658;BME280;10990;48.174;9.782;2023-01-30T12:16:58;95017.56;;;1.99;100.00
21658;BME280;10990;48.174;9.782;2023-01-30T12:19:35;95025.50;;;1.74;100.00
21658;BME280;10990;48.174;9.782;2023-01-30T12:22:16;94987.13;;;2.00;100.00
21658;BME280;10990;48.174;9.782;2023-01-30T12:24:51;94980.69;;;1.93;100.00
21658;BME280;10990;48.174;9.782;2023-01-30T12:27:27;94970.16;;;1.94;100.00
21658;BME280;10990;48.174;9.782;2023-01-30T12:30:00;94956.25;;;1.94;100.00
21658;BME280;10990;48.174;9.782;2023-01-30T12:32:32;94961.22;;;1.86;100.00
21658;BME280;10990;48.174;9.782;2023-01-30T12:35:00;94945.22;;;1.90;100.00
21658;BME280;10990;48.174;9.782;2023-01-30T12:37:39;94925.13;;;2.04;100.00
21658;BME280;10990;48.174;9.782;2023-01-30T12:40:21;94921.94;;;2.11;100.00
21658;BME280;10990;48.174;9.782;2023-01-30T12:43:06;94929.16;;;2.19;100.00
21658;BME280;10990;48.174;9.782;2023-01-30T12:45:41;94926.06;;;2.25;100.00
21658;BME280;10990;48.174;9.782;2023-01-30T12:48:27;94927.78;;;2.37;100.00
21658;BME280;10990;48.174;9.782;2023-01-30T12:51:04;94932.28;;;2.46;100.00
21658;BME280;10990;48.174;9.782;2023-01-30T12:53:39;94934.16;;;2.33;100.00
21658;BME280;10990;48.174;9.782;2023-01-30T12:56:33;94935.69;;;2.36;100.00
21658;BME280;10990;48.174;9.782;2023-01-30T12:59:11;94920.19;;;2.34;100.00
21658;BME280;10990;48.174;9.782;2023-01-30T13:01:46;94917.44;;;2.24;100.00
21658;BME280;10990;48.174;9.782;2023-01-30T13:04:25;94918.75;;;2.30;100.00
21658;BME280;10990;48.174;9.782;2023-01-30T13:07:03;94913.53;;;2.41;100.00
21658;BME280;10990;48.174;9.782;2023-01-30T13:09:53;94920.03;;;2.36;100.00
21658;BME280;10990;48.174;9.782;2023-01-30T13:12:31;94923.47;;;2.47;100.00
21658;BME280;10990;48.174;9.782;2023-01-30T13:15:08;94924.69;;;2.43;100.00